Flight Track Log - Related Links

Times and Time Zones

All times are in EDT time to prevent confusion due to time zone crossing. See the GTI192 flight status page for this flight to view local times or setup timezone preferences in your user account.

Time Position Orientation Groundspeed Altitude Reporting Facility
EDT Latitude Longitude Course Direction KTS MPH feet Rate Location/Type
Fri 10:22:57 PM 44.8333 -93.2000 115° Southeast 196 226 3,100  Level Minneapolis TRACON
Fri 10:23:43 PM 44.8117 -93.1525 123° Southeast 314 361 5,800 3,477 Climbing Minneapolis Center
Fri 10:24:44 PM 44.7739 -93.0644 121° Southeast 277 319 9,300 3,049 Climbing Minneapolis Center
Fri 10:25:45 PM 44.7439 -92.9489 110° East 314 361 12,000 2,489 Climbing Minneapolis Center
Fri 10:26:59 PM 44.7075 -92.8069 110° East 387 445 14,900 2,800 Climbing Minneapolis Center
Fri 10:28:00 PM 44.6483 -92.4949 115° Southeast  Level FlightAware
Fri 10:28:00 PM 44.6625 -92.6322 110° East 395 455 18,300  Level Minneapolis Center
Fri 10:29:02 PM 44.6178 -92.4772 112° Southeast 423 487 21,300 2,780 Climbing Minneapolis Center
Fri 10:30:03 PM 44.5697 -92.3175 113° Southeast 442 509 24,000 2,656 Climbing Minneapolis Center
Fri 10:31:04 PM 44.5108 -92.1194 113° Southeast 459 528 26,700 2,195 Climbing Minneapolis Center
Fri 10:32:06 PM 44.4586 -91.9486 113° Southeast 474 545 28,500 1,805 Climbing Minneapolis Center
Fri 10:33:07 PM 44.4067 -91.7744 113° Southeast 485 558 30,400 2,049 Climbing Minneapolis Center
Fri 10:34:09 PM 44.3528 -91.6022 114° Southeast 487 560 32,700 1,268 Climbing Minneapolis Center
Fri 10:35:10 PM 44.3114 -91.4628 112° Southeast 486 559 33,000 148 Climbing Minneapolis Center
Fri 10:36:11 PM 44.2417 -91.2381 113° Southeast 485 558 33,000  Level Minneapolis Center
Fri 10:37:13 PM 44.1869 -91.0656 114° Southeast 489 563 33,000  Level Minneapolis Center
Fri 10:38:14 PM 44.1331 -90.8894 113° Southeast 494 568 33,000  Level Minneapolis Center
Fri 10:39:15 PM 44.0783 -90.7147 114° Southeast 496 571 33,000  Level Minneapolis Center
Fri 10:40:17 PM 44.0156 -90.5208 114° Southeast 495 570 33,000  Level Minneapolis Center
Fri 10:41:18 PM 43.9597 -90.3461 114° Southeast 495 570 33,000  Level Minneapolis Center
Fri 10:42:19 PM 43.9042 -90.1742 114° Southeast 491 565 33,000  Level Minneapolis Center
Fri 10:43:20 PM 43.8486 -90.0000 114° Southeast 492 566 33,000  Level Minneapolis Center
Fri 10:44:22 PM 43.7911 -89.8258 115° Southeast 496 571 33,000  Level Minneapolis Center
Fri 10:45:23 PM 43.7356 -89.6531 114° Southeast 493 567 33,000  Level Minneapolis Center
Fri 10:46:24 PM 43.6789 -89.4797 114° Southeast 493 567 33,000  Level Minneapolis Center
Fri 10:47:25 PM 43.6203 -89.3067 115° Southeast 497 572 33,000  Level Minneapolis Center
Fri 10:47:40 PM 43.6008 -89.2492 115° Southeast 496 571 33,000  Level Chicago Center
Fri 10:48:41 PM 43.5419 -89.0761 115° Southeast 498 573 33,000  Level Chicago Center
Fri 10:49:42 PM 43.4836 -88.9031 115° Southeast 499 574 33,000  Level Chicago Center
Fri 10:50:43 PM 43.4250 -88.7308 115° Southeast 500 575 33,000  Level Chicago Center
Fri 10:51:44 PM 43.3661 -88.5619 116° Southeast 500 575 33,000  Level Chicago Center
Fri 10:52:46 PM 43.2981 -88.3628 115° Southeast 508 585 33,000  Level Chicago Center
Fri 10:53:47 PM 43.2389 -88.1903 115° Southeast 503 579 33,000 -393 Level Chicago Center
Fri 10:54:48 PM 43.1786 -88.0183 116° Southeast 501 577 32,200 -934 Descending Chicago Center
Fri 10:55:49 PM 43.1183 -87.8478 116° Southeast 499 574 31,100 -590 Descending Chicago Center
Fri 10:56:50 PM 43.0578 -87.6761 116° Southeast 500 575 31,000 -49 Descending Chicago Center
Fri 10:57:51 PM 42.9972 -87.5050 116° Southeast 501 577 31,000  Level Chicago Center
Fri 10:58:52 PM 42.9328 -87.3275 116° Southeast 504 580 31,000  Level Chicago Center
Fri 10:59:53 PM 42.8714 -87.1558 116° Southeast 505 581 31,000  Level Chicago Center
Fri 11:00:54 PM 42.8083 -86.9842 117° Southeast 509 586 31,000 -197 Level Chicago Center
Fri 11:01:55 PM 42.7475 -86.8139 116° Southeast 506 582 30,600 -639 Descending Chicago Center
Fri 11:02:56 PM 42.6858 -86.6447 116° Southeast 504 580 29,700 -1,279 Descending Chicago Center
Fri 11:03:57 PM 42.6239 -86.4808 117° Southeast 496 571 28,000 -2,410 Descending Chicago Center
Fri 11:04:58 PM 42.5528 -86.2894 117° Southeast 481 554 24,800 -2,803 Descending Chicago Center
Fri 11:05:59 PM 42.4950 -86.1364 117° Southeast 465 535 22,300 -2,311 Descending Chicago Center
Fri 11:07:00 PM 42.4400 -85.9886 117° Southeast 446 513 20,100 -1,623 Descending Chicago Center
Fri 11:08:01 PM 42.3861 -85.8469 117° Southeast 430 495 19,000 -541 Descending Chicago Center
Fri 11:09:02 PM 42.3333 -85.7092 117° Southeast 418 481 19,000  Level Chicago Center
Fri 11:10:03 PM 42.2817 -85.5694 117° Southeast 418 481 19,000  Level Chicago Center
Fri 11:11:04 PM 42.2278 -85.4306 118° Southeast 420 483 19,000  Level Chicago Center
Fri 11:11:33 PM 42.2047 -85.3575 113° Southeast 418 481 19,000 -607 Level Cleveland Center
Fri 11:12:33 PM 42.1497 -85.2189 118° Southeast 423 487 18,100 -1,250 Descending Cleveland Center
Fri 11:13:33 PM 42.0989 -85.0864 117° Southeast 412 474 16,500 -1,750 Descending Cleveland Center
Fri 11:14:33 PM 42.0475 -84.9597 119° Southeast 400 460 14,600 -2,100 Descending Cleveland Center
Fri 11:15:33 PM 41.9939 -84.8275 119° Southeast 381 438 12,300 -1,800 Descending Cleveland Center
Fri 11:16:33 PM 41.9503 -84.7072 116° Southeast 371 427 11,000 -650 Descending Cleveland Center
Fri 11:17:33 PM 41.9081 -84.6069 119° Southeast 348 400 11,000 -450 Level Cleveland Center
Fri 11:18:33 PM 41.8697 -84.5125 119° Southeast 317 365 10,100 -1,150 Descending Cleveland Center
Fri 11:19:33 PM 41.8333 -84.4153 117° Southeast 295 339 8,700 -1,250 Descending Cleveland Center
Fri 11:20:33 PM 41.7967 -84.3242 118° Southeast 283 326 7,600 -1,250 Descending Cleveland Center
Fri 11:21:33 PM 41.7578 -84.2356 120° Southeast 278 320 6,200 -1,100 Descending Cleveland Center
Fri 11:22:33 PM 41.7250 -84.1500 117° Southeast 273 314 5,400 -800 Descending Cleveland Center
Fri 11:23:33 PM 41.6961 -84.0761 118° Southeast 253 291 4,600 -900 Descending Cleveland Center
Fri 11:24:33 PM 41.6692 -84.0025 116° Southeast 233 268 3,600 -800 Descending Cleveland Center
Fri 11:25:33 PM 41.6483 -83.9347 112° Southeast 213 245 3,000 -600 Descending Cleveland Center
Fri 11:27:00 PM 41.5833 -83.8000 108° East  Level FlightAware
Fri 11:34:00 PM 41.5868 -83.8078 108° East  Level Estimated
Fri 11:35:00 PM 41.5833 -83.8000 108° East  Level FlightAware
Fri 11:36:00 PM 41.5868 -83.8078 108° East  Level Estimated
Fri 11:37:00 PM 41.5833 -83.8000 108° East  Level FlightAware

Login

Don't have an account? Register now (free) for customized features, flight alerts, and more!